Lake Mary, California
Current Conditions -  °F | °C
As of 2:15 AM on Tuesday 27 Jan 2015 (Local Time) from KMMH Reporting Station
Overcast Overcast  
Wind Chill: 26°   Ceiling: 700
Heat Index: 32°   Visibility: 10mi
Dew Point: 32°   Wind: 7mph
Humidity: 100%   Direction: 280°W
Pressure: 30.16"   Gusts: NA
Location:  37.6599°N, 118.912°W
Report Text: KMMH 271015Z AUTO 28006KT 10SM BKN007 BKN023 OVC038 00/00 A3016 RMK AO1
Loading
Personal Weather Stations






























Interactive Weather Map New forecast layout! Learn more

10-Day Weather Forecast

Advertisements
Track Severe Weather on mobile